Time;durP1;ratioP1;P1;durP2;ratioP2;P2;SDS_P1;SDS_P2;PMS_P1;PMS_P2;Temp;Humidity;BMP_temperature;BMP_pressure;BME280_temperature;BME280_humidity;BME280_pressure;Samples;Min_cycle;Max_cycle;Signal;HPM_P1;HPM_P2
2021/12/28 00:00:22;;;;;;;24.25;10.45;;;;;;;1.41;57.03;98761.28;4309174;33;34146;-96
2021/12/28 00:02:51;;;;;;;21.42;10.88;;;;;;;1.39;56.91;98760.41;4309183;33;35712;-96
2021/12/28 00:05:19;;;;;;;21.40;10.85;;;;;;;1.26;57.07;98765.31;4320964;33;34426;-95
2021/12/28 00:07:47;;;;;;;22.15;10.80;;;;;;;1.28;57.33;98753.38;4304930;33;32509;-96
2021/12/28 00:10:17;;;;;;;21.48;10.50;;;;;;;1.18;57.27;98748.94;4295347;33;33797;-95
2021/12/28 00:12:46;;;;;;;22.50;10.68;;;;;;;1.17;57.66;98741.22;4321137;33;34005;-96
2021/12/28 00:17:59;;;;;;;20.60;9.60;;;;;;;1.07;58.53;98745.31;4307723;33;33078;-96
2021/12/28 00:20:30;;;;;;;13.75;8.70;;;;;;;0.73;60.63;98745.56;4296708;33;34696;-95
2021/12/28 00:22:59;;;;;;;17.95;9.82;;;;;;;1.49;59.07;98757.16;4327820;33;34737;-96
2021/12/28 00:25:27;;;;;;;20.52;10.07;;;;;;;1.33;59.54;98749.19;4321056;33;34276;-95
2021/12/28 00:27:55;;;;;;;22.75;11.63;;;;;;;1.68;58.58;98748.91;4321705;33;34367;-96
2021/12/28 00:30:23;;;;;;;14.32;9.00;;;;;;;1.43;59.87;98751.91;4321347;33;33567;-96
2021/12/28 00:32:53;;;;;;;19.20;8.80;;;;;;;1.47;59.82;98749.41;4320754;33;35775;-96
2021/12/28 00:35:23;;;;;;;17.98;8.63;;;;;;;1.53;59.74;98753.78;4321983;33;34431;-96
2021/12/28 00:37:52;;;;;;;19.92;8.27;;;;;;;1.62;59.25;98755.62;4298041;33;32085;-95
2021/12/28 00:40:20;;;;;;;16.62;9.02;;;;;;;1.96;59.00;98758.69;4321780;33;33674;-96
2021/12/28 00:42:48;;;;;;;17.83;8.48;;;;;;;1.82;59.16;98753.38;4308832;33;33845;-96
2021/12/28 00:45:17;;;;;;;17.10;8.02;;;;;;;1.79;59.66;98755.91;4320857;33;34815;-96
2021/12/28 00:47:45;;;;;;;21.73;9.23;;;;;;;1.79;58.93;98756.75;4309739;33;32153;-96
2021/12/28 00:50:15;;;;;;;16.60;8.00;;;;;;;1.09;61.64;98756.47;4309657;33;32805;-95
2021/12/28 00:52:43;;;;;;;16.27;7.97;;;;;;;1.18;62.05;98764.31;4320940;33;34916;-96
2021/12/28 00:55:12;;;;;;;18.05;8.18;;;;;;;1.04;62.31;98760.66;4321869;33;34801;-96
2021/12/28 00:57:40;;;;;;;25.05;9.90;;;;;;;0.81;63.80;98760.22;4333627;33;33130;-95
2021/12/28 01:00:12;;;;;;;24.05;9.30;;;;;;;1.00;63.53;98758.87;4297743;33;32591;-95
2021/12/28 01:02:40;;;;;;;13.98;7.70;;;;;;;0.76;64.04;98757.59;4320651;33;35018;-95
2021/12/28 01:05:09;;;;;;;16.95;8.65;;;;;;;1.13;63.60;98750.56;4308832;33;34509;-95
2021/12/28 01:07:37;;;;;;;12.50;6.97;;;;;;;0.92;64.08;98751.06;4309578;33;32411;-95
2021/12/28 01:10:10;;;;;;;15.13;8.32;;;;;;;0.87;65.58;98756.09;4335110;33;33986;-96
2021/12/28 01:12:39;;;;;;;12.93;7.68;;;;;;;0.97;64.99;98752.00;4308733;33;34190;-96
2021/12/28 01:15:09;;;;;;;23.08;8.10;;;;;;;0.47;67.00;98749.31;4334879;33;34690;-96
2021/12/28 01:17:37;;;;;;;17.67;8.65;;;;;;;0.92;66.22;98749.34;4297690;33;32063;-96
2021/12/28 01:20:09;;;;;;;22.27;8.70;;;;;;;0.68;67.66;98739.50;4297671;33;33997;-95
2021/12/28 01:22:38;;;;;;;18.65;8.35;;;;;;;0.27;70.14;98729.31;4294559;33;34933;-95
2021/12/28 01:25:07;;;;;;;16.00;8.18;;;;;;;0.51;69.46;98725.50;4320444;33;35214;-96
2021/12/28 01:27:35;;;;;;;18.60;9.18;;;;;;;0.83;68.65;98727.78;4321589;33;33036;-96
2021/12/28 01:30:05;;;;;;;16.67;8.88;;;;;;;0.86;68.64;98718.47;4309661;33;33538;-96
2021/12/28 01:32:34;;;;;;;16.15;8.65;;;;;;;1.17;67.37;98728.41;4305875;33;34255;-96
2021/12/28 01:35:04;;;;;;;15.68;8.05;;;;;;;0.73;69.22;98726.78;4307031;33;34326;-96
2021/12/28 01:37:32;;;;;;;24.20;8.45;;;;;;;1.38;66.79;98721.06;4294883;33;32511;-96
2021/12/28 01:40:00;;;;;;;18.02;8.27;;;;;;;1.49;66.40;98716.09;4318811;33;33773;-96
2021/12/28 01:42:29;;;;;;;19.92;9.95;;;;;;;1.70;65.42;98725.81;4298487;33;35679;-95
2021/12/28 01:44:57;;;;;;;18.83;9.15;;;;;;;1.49;66.46;98721.22;4308070;33;33715;-96
2021/12/28 01:47:25;;;;;;;21.65;10.15;;;;;;;1.93;65.59;98727.87;4306764;33;33630;-95
2021/12/28 01:49:53;;;;;;;17.85;8.75;;;;;;;1.02;68.70;98724.72;4294566;33;32604;-96
2021/12/28 01:52:21;;;;;;;25.20;12.35;;;;;;;0.78;69.64;98714.91;4322479;33;34974;-96
2021/12/28 01:54:49;;;;;;;17.33;9.05;;;;;;;0.69;70.44;98719.84;4334662;33;34391;-96
2021/12/28 01:57:18;;;;;;;21.10;9.95;;;;;;;0.94;69.60;98719.47;4321276;33;33409;-95
2021/12/28 01:59:46;;;;;;;21.17;9.63;;;;;;;1.20;68.80;98724.19;4309509;33;34727;-95
2021/12/28 02:02:14;;;;;;;22.33;8.80;;;;;;;1.58;67.78;98711.09;4319434;33;34697;-96
2021/12/28 02:04:42;;;;;;;24.42;10.30;;;;;;;1.51;68.08;98704.16;4334308;33;34053;-95
2021/12/28 02:07:10;;;;;;;18.90;7.87;;;;;;;1.84;66.54;98690.94;4321343;33;33182;-95
2021/12/28 02:09:38;;;;;;;19.90;9.07;;;;;;;1.40;68.13;98690.31;4320115;33;32443;-96
2021/12/28 02:12:07;;;;;;;17.52;7.95;;;;;;;1.35;68.54;98686.81;4333341;33;35519;-96
2021/12/28 02:14:36;;;;;;;20.90;9.05;;;;;;;0.60;71.28;98702.63;4321148;33;34312;-96
2021/12/28 02:17:04;;;;;;;15.98;8.27;;;;;;;0.53;72.12;98683.72;4321302;33;33295;-95
2021/12/28 02:19:32;;;;;;;19.67;9.45;;;;;;;0.74;71.51;98688.38;4309307;33;34107;-96
2021/12/28 02:21:59;;;;;;;19.50;8.48;;;;;;;0.77;71.77;98687.56;4306870;33;33957;-95
2021/12/28 02:24:27;;;;;;;25.17;9.27;;;;;;;0.91;72.23;98680.97;4333398;33;33381;-96
2021/12/28 02:26:55;;;;;;;20.83;8.57;;;;;;;1.14;71.27;98701.00;4308940;33;32609;-96
2021/12/28 02:29:23;;;;;;;19.08;9.95;;;;;;;0.99;71.93;98688.81;4308312;33;32775;-95
2021/12/28 02:31:55;;;;;;;25.55;9.40;;;;;;;1.18;71.86;98689.94;4297079;33;34012;-96
2021/12/28 02:34:24;;;;;;;18.42;9.02;;;;;;;0.78;73.20;98689.28;4319352;33;34265;-96
2021/12/28 02:36:54;;;;;;;21.37;11.12;;;;;;;0.55;74.48;98691.44;4306802;33;33036;-96
2021/12/28 02:39:22;;;;;;;20.55;10.98;;;;;;;0.77;73.83;98681.56;4319520;33;33727;-94
2021/12/28 02:41:50;;;;;;;22.02;9.60;;;;;;;0.64;73.97;98695.88;4315682;33;35174;-96
2021/12/28 02:44:17;;;;;;;19.62;10.02;;;;;;;1.07;72.35;98691.47;4317164;33;34295;-96
2021/12/28 02:46:45;;;;;;;18.17;9.32;;;;;;;1.36;71.98;98699.66;4294545;33;34216;-96
2021/12/28 02:49:14;;;;;;;27.95;10.68;;;;;;;1.54;71.42;98699.06;4294490;33;34715;-95
2021/12/28 02:51:42;;;;;;;19.25;10.38;;;;;;;1.06;73.06;98697.44;4306396;33;35143;-96
2021/12/28 02:54:10;;;;;;;21.95;9.50;;;;;;;1.16;72.60;98695.91;4300618;33;33903;-96
2021/12/28 02:56:38;;;;;;;19.35;10.50;;;;;;;1.11;72.66;98691.56;4294271;33;32328;-96
2021/12/28 02:59:06;;;;;;;22.17;10.20;;;;;;;1.42;71.33;98683.50;4297203;33;33656;-93
2021/12/28 03:01:42;;;;;;;21.27;11.52;;;;;;;1.39;71.01;98686.00;4323837;33;36051;-94
2021/12/28 03:04:13;;;;;;;21.62;10.38;;;;;;;0.94;72.35;98686.16;4310107;33;33232;-93
2021/12/28 03:06:40;;;;;;;19.75;10.02;;;;;;;1.17;71.92;98683.09;4307871;33;33589;-92
2021/12/28 03:09:08;;;;;;;27.40;10.98;;;;;;;1.88;69.34;98679.88;4321088;33;33781;-93
2021/12/28 03:11:36;;;;;;;22.30;11.07;;;;;;;1.21;70.33;98678.91;4308705;33;34979;-93
2021/12/28 03:14:05;;;;;;;24.42;11.43;;;;;;;0.94;71.87;98680.16;4306174;33;33738;-94
2021/12/28 03:16:33;;;;;;;20.02;11.25;;;;;;;0.90;72.09;98689.50;4319184;33;33144;-93
2021/12/28 03:19:03;;;;;;;25.10;12.13;;;;;;;1.29;70.75;98680.75;4322782;33;34072;-93
2021/12/28 03:21:31;;;;;;;24.52;10.35;;;;;;;1.16;70.64;98686.50;4309594;33;33590;-94
2021/12/28 03:23:59;;;;;;;24.42;10.02;;;;;;;1.62;69.55;98694.91;4323537;33;34555;-93
2021/12/28 03:26:28;;;;;;;22.33;10.07;;;;;;;1.16;71.59;98691.63;4311717;33;32040;-93
2021/12/28 03:28:56;;;;;;;30.17;11.25;;;;;;;1.20;71.13;98682.28;4325084;33;33791;-94
2021/12/28 03:31:24;;;;;;;20.48;11.07;;;;;;;1.14;71.21;98686.47;4340831;33;35047;-94
2021/12/28 03:33:54;;;;;;;27.10;10.45;;;;;;;0.64;73.09;98681.34;4298362;33;33401;-93
2021/12/28 03:36:23;;;;;;;22.75;11.25;;;;;;;1.59;70.25;98681.16;4293954;33;31674;-94
2021/12/28 03:38:52;;;;;;;27.20;11.70;;;;;;;1.36;71.07;98693.66;4307327;33;33351;-94
2021/12/28 03:41:21;;;;;;;21.95;11.75;;;;;;;1.31;71.24;98689.31;4320518;33;34995;-93
2021/12/28 03:43:53;;;;;;;23.62;13.27;;;;;;;0.71;73.26;98688.31;4319183;33;34610;-94
2021/12/28 03:46:23;;;;;;;27.00;11.63;;;;;;;1.02;72.68;98686.25;4316984;33;34372;-93
2021/12/28 03:48:51;;;;;;;19.15;9.63;;;;;;;0.78;73.35;98681.59;4306254;33;33866;-93
2021/12/28 03:51:19;;;;;;;23.05;10.88;;;;;;;0.78;74.05;98690.97;4305819;33;35411;-93
2021/12/28 03:53:49;;;;;;;28.55;11.23;;;;;;;0.97;72.58;98693.03;4323950;33;35182;-92
2021/12/28 03:56:18;;;;;;;19.90;11.38;;;;;;;0.85;73.03;98695.41;4295177;33;32718;-93
2021/12/28 03:58:52;;;;;;;19.33;11.55;;;;;;;0.63;74.19;98694.97;4307961;33;33989;-92
2021/12/28 04:01:23;;;;;;;20.77;10.50;;;;;;;1.11;72.35;98683.00;4308689;33;34826;-93
2021/12/28 04:03:54;;;;;;;26.48;11.75;;;;;;;1.07;73.13;98692.34;4315346;33;34284;-93
2021/12/28 04:06:24;;;;;;;21.35;11.52;;;;;;;0.75;74.43;98694.34;4298571;33;33600;-92
2021/12/28 04:09:07;;;;;;;25.92;10.60;;;;;;;1.24;73.26;98699.47;4310621;33;34155;-93
2021/12/28 04:11:38;;;;;;;25.58;12.27;;;;;;;0.94;73.49;98696.41;4309044;33;34818;-93
2021/12/28 04:14:08;;;;;;;24.30;11.60;;;;;;;0.82;75.22;98693.62;4322813;33;34708;-92
2021/12/28 04:16:47;;;;;;;24.35;11.05;;;;;;;1.08;74.04;98694.06;4324431;33;33606;-92
2021/12/28 04:19:19;;;;;;;24.10;10.88;;;;;;;1.32;73.29;98685.94;4324742;33;34615;-93
2021/12/28 04:21:48;;;;;;;35.70;12.93;;;;;;;0.72;75.56;98694.28;4323528;33;35720;-92
2021/12/28 04:24:17;;;;;;;31.92;12.77;;;;;;;1.25;73.93;98691.81;4320276;33;34456;-93
2021/12/28 04:26:46;;;;;;;26.08;11.12;;;;;;;0.43;77.19;98698.88;4320025;33;33550;-92
2021/12/28 04:29:15;;;;;;;23.67;9.48;;;;;;;0.43;78.59;98699.75;4322533;33;34713;-93
2021/12/28 04:31:50;;;;;;;26.77;9.48;;;;;;;1.02;76.98;98698.22;4322956;33;34431;-93
2021/12/28 04:34:18;;;;;;;17.62;8.48;;;;;;;0.29;79.33;98699.47;4309888;33;34066;-92
2021/12/28 04:36:50;;;;;;;26.20;10.65;;;;;;;0.38;79.52;98696.22;4311772;33;33796;-92
2021/12/28 04:39:21;;;;;;;20.25;10.48;;;;;;;0.65;78.81;98702.69;4313014;33;33405;-92
2021/12/28 04:42:05;;;;;;;26.25;8.70;;;;;;;0.66;79.18;98694.19;4313758;33;35578;-91
2021/12/28 04:44:36;;;;;;;24.48;10.20;;;;;;;0.97;77.84;98690.47;4341349;27;34453;-92
2021/12/28 04:47:22;;;;;;;19.08;8.80;;;;;;;0.45;79.77;98690.37;4308946;27;32490;-92
2021/12/28 04:50:13;;;;;;;24.35;9.80;;;;;;;0.96;77.96;98695.56;4326499;27;33505;-92
2021/12/28 04:52:43;;;;;;;24.02;10.07;;;;;;;1.00;77.59;98694.78;4330638;27;34564;-92
2021/12/28 04:55:26;;;;;;;29.98;11.70;;;;;;;0.71;79.23;98682.34;4337721;33;34308;-92
2021/12/28 04:57:55;;;;;;;24.30;11.43;;;;;;;0.57;80.03;98682.06;4336673;33;33479;-95
2021/12/28 05:00:37;;;;;;;26.10;10.18;;;;;;;0.83;78.58;98677.44;4327428;27;34169;-92
2021/12/28 05:03:08;;;;;;;26.42;11.18;;;;;;;1.22;77.23;98683.16;4325968;33;35057;-93
2021/12/28 05:05:39;;;;;;;23.15;9.98;;;;;;;1.25;76.93;98680.66;4322092;33;34807;-93
2021/12/28 05:08:12;;;;;;;19.08;8.75;;;;;;;1.12;77.80;98690.72;4319677;33;31965;-93
2021/12/28 05:10:42;;;;;;;27.50;7.30;;;;;;;0.50;79.81;98687.91;4317260;33;33665;-92
2021/12/28 05:13:12;;;;;;;14.20;6.07;;;;;;;0.20;81.58;98690.75;4311237;33;34725;-93
2021/12/28 05:15:44;;;;;;;9.85;5.40;;;;;;;0.58;80.18;98694.03;4319061;33;34970;-91
2021/12/28 05:18:12;;;;;;;19.90;5.40;;;;;;;0.69;80.49;98689.09;4319090;33;32170;-92
2021/12/28 05:20:40;;;;;;;16.00;6.43;;;;;;;0.41;80.61;98686.06;4318909;33;33884;-92
2021/12/28 05:23:09;;;;;;;11.48;4.97;;;;;;;0.81;78.99;98684.19;4310055;27;35084;-92
2021/12/28 05:25:38;;;;;;;16.52;6.07;;;;;;;0.94;79.18;98688.72;4375778;27;34243;-93
2021/12/28 05:28:10;;;;;;;12.20;5.80;;;;;;;1.26;77.78;98690.09;4308445;33;33600;-93
2021/12/28 05:30:38;;;;;;;14.25;4.53;;;;;;;0.36;80.87;98695.34;4318752;33;33771;-93
2021/12/28 05:33:08;;;;;;;10.30;5.35;;;;;;;0.05;82.22;98693.84;4319962;33;35828;-93
2021/12/28 05:35:36;;;;;;;12.98;4.85;;;;;;;0.48;81.90;98700.69;4319100;33;34099;-93
2021/12/28 05:38:04;;;;;;;13.30;5.30;;;;;;;0.06;82.77;98701.56;4320609;33;34557;-93
2021/12/28 05:40:32;;;;;;;9.32;4.45;;;;;;;0.47;81.44;98704.06;4319839;33;33970;-93
2021/12/28 05:43:00;;;;;;;9.40;4.12;;;;;;;0.32;81.65;98704.66;4304054;33;34283;-93
2021/12/28 05:45:28;;;;;;;13.55;5.20;;;;;;;0.85;79.98;98701.38;4304084;33;34083;-93
2021/12/28 05:47:58;;;;;;;13.57;5.90;;;;;;;0.36;81.31;98700.47;4293300;33;33249;-93
2021/12/28 05:50:26;;;;;;;12.52;4.82;;;;;;;0.77;80.26;98707.19;4305965;33;34728;-95
2021/12/28 05:52:54;;;;;;;10.55;5.43;;;;;;;0.68;80.16;98713.00;4294640;33;33714;-96
2021/12/28 05:55:23;;;;;;;8.50;4.22;;;;;;;0.65;80.98;98713.81;4322087;33;34916;-96
2021/12/28 05:57:51;;;;;;;8.60;5.22;;;;;;;0.30;82.05;98710.56;4322895;33;33538;-94
2021/12/28 06:00:19;;;;;;;8.98;3.95;;;;;;;0.14;83.18;98704.28;4313148;33;33623;-93
2021/12/28 06:02:49;;;;;;;10.02;5.47;;;;;;;0.83;80.68;98708.19;4307754;33;35005;-93
2021/12/28 06:05:16;;;;;;;9.07;4.62;;;;;;;0.65;80.35;98724.06;4307533;33;34364;-94
2021/12/28 06:07:44;;;;;;;13.13;4.07;;;;;;;0.54;81.15;98723.84;4306186;33;33807;-94
2021/12/28 06:10:14;;;;;;;9.25;4.22;;;;;;;0.26;81.79;98727.56;4308049;33;34177;-93
2021/12/28 06:12:42;;;;;;;8.52;4.53;;;;;;;0.68;80.76;98728.37;4309338;33;35254;-96
2021/12/28 06:15:10;;;;;;;11.30;4.95;;;;;;;0.50;80.41;98734.03;4326428;33;34490;-95
2021/12/28 06:17:39;;;;;;;12.85;6.25;;;;;;;0.41;81.14;98727.03;4325163;33;33055;-95
2021/12/28 06:20:07;;;;;;;9.57;4.70;;;;;;;0.77;80.09;98732.81;4291286;33;33673;-96
2021/12/28 06:22:35;;;;;;;8.27;4.62;;;;;;;0.51;80.82;98722.94;4295175;33;35786;-96
2021/12/28 06:25:10;;;;;;;13.02;5.22;;;;;;;0.85;80.45;98724.44;4297187;33;34567;-96
2021/12/28 06:27:39;;;;;;;10.80;5.43;;;;;;;0.78;79.98;98725.16;4296722;33;32775;-96
2021/12/28 06:30:22;;;;;;;13.27;5.80;;;;;;;1.09;78.95;98725.69;4329511;33;33753;-97
2021/12/28 06:33:34;;;;;;;16.45;5.70;;;;;;;0.65;80.28;98723.19;4291183;33;33942;-96
2021/12/28 06:36:05;;;;;;;19.87;9.73;;;;;;;0.60;80.19;98719.69;4269612;33;33393;-96
2021/12/28 06:38:33;;;;;;;11.07;5.25;;;;;;;0.70;80.83;98726.72;4278868;33;32908;-96
2021/12/28 06:41:14;;;;;;;14.77;7.65;;;;;;;0.48;81.68;98728.03;4282799;33;33895;-96
2021/12/28 06:43:44;;;;;;;13.32;5.95;;;;;;;0.77;79.74;98731.13;4271689;33;34299;-96
2021/12/28 06:46:11;;;;;;;19.60;7.05;;;;;;;1.03;79.24;98723.91;4287264;33;34383;-95
2021/12/28 06:48:40;;;;;;;12.02;5.50;;;;;;;0.49;80.03;98733.13;4286646;33;33400;-96
2021/12/28 06:51:08;;;;;;;10.85;4.95;;;;;;;1.05;79.48;98723.94;4292288;33;32775;-96
2021/12/28 06:53:36;;;;;;;14.15;5.95;;;;;;;0.59;80.58;98723.09;4291819;33;34441;-96
2021/12/28 06:56:05;;;;;;;12.77;4.90;;;;;;;0.55;81.77;98732.44;4312767;33;34407;-96
2021/12/28 06:58:38;;;;;;;13.68;6.28;;;;;;;0.90;79.51;98737.31;4258764;33;32072;-96
2021/12/28 07:01:07;;;;;;;15.70;6.10;;;;;;;0.61;80.34;98742.78;4278593;33;34001;-95
2021/12/28 07:03:35;;;;;;;11.93;5.65;;;;;;;0.69;80.42;98750.59;4271515;33;34716;-95
2021/12/28 07:06:03;;;;;;;15.20;5.55;;;;;;;0.72;79.84;98750.66;4275843;33;34035;-96
2021/12/28 07:08:31;;;;;;;11.63;5.55;;;;;;;0.62;80.88;98746.19;4285084;33;33519;-95
2021/12/28 07:10:59;;;;;;;13.30;5.78;;;;;;;0.69;81.26;98754.03;4289234;33;33472;-96
2021/12/28 07:13:27;;;;;;;10.30;5.25;;;;;;;0.70;80.95;98765.16;4299853;33;33886;-95
2021/12/28 07:15:56;;;;;;;8.15;4.65;;;;;;;0.80;80.27;98764.50;4301240;33;34453;-95
2021/12/28 07:18:24;;;;;;;15.80;6.25;;;;;;;0.43;81.85;98758.66;4265003;33;32530;-95
2021/12/28 07:20:52;;;;;;;9.60;5.80;;;;;;;0.31;81.69;98753.28;4289551;33;32619;-94
2021/12/28 07:23:20;;;;;;;14.95;6.53;;;;;;;0.81;80.03;98761.06;4301291;33;35863;-95
2021/12/28 07:25:58;;;;;;;13.60;7.00;;;;;;;1.36;77.93;98752.66;4302856;33;33523;-94
2021/12/28 07:28:26;;;;;;;16.83;6.15;;;;;;;1.48;77.04;98770.81;4278837;33;33481;-95
2021/12/28 07:30:54;;;;;;;71.87;22.08;;;;;;;0.73;80.10;98760.94;4289696;33;33206;-93
2021/12/28 07:33:22;;;;;;;21.62;9.77;;;;;;;0.90;80.08;98756.16;4276827;33;35049;-96
2021/12/28 07:35:51;;;;;;;25.12;9.05;;;;;;;1.31;78.10;98757.72;4293088;33;33111;-96
2021/12/28 07:38:19;;;;;;;20.25;5.97;;;;;;;0.48;80.92;98767.28;4302869;33;33317;-96
2021/12/28 07:40:47;;;;;;;15.65;7.60;;;;;;;0.63;81.43;98776.13;4295252;33;33002;-96
2021/12/28 07:43:15;;;;;;;11.82;6.37;;;;;;;0.54;80.90;98769.97;4279714;33;34850;-95
2021/12/28 07:45:44;;;;;;;25.33;7.53;;;;;;;0.70;81.14;98767.72;4290182;33;34688;-95
2021/12/28 07:48:13;;;;;;;16.00;7.10;;;;;;;0.74;81.16;98765.25;4306597;33;33757;-95
2021/12/28 07:50:42;;;;;;;15.68;7.20;;;;;;;1.02;80.02;98768.31;4280315;33;33471;-96
2021/12/28 07:53:57;;;;;;;18.90;8.25;;;;;;;1.03;80.08;98771.75;4284716;33;35037;-96
2021/12/28 07:56:27;;;;;;;17.85;8.52;;;;;;;1.09;80.21;98771.84;4298673;33;34425;-94
2021/12/28 07:59:02;;;;;;;14.75;6.00;;;;;;;0.97;79.88;98771.63;4282915;33;33358;-95
2021/12/28 08:01:35;;;;;;;22.85;8.00;;;;;;;0.86;80.32;98774.84;4335837;27;33666;-96
2021/12/28 08:04:04;;;;;;;15.95;6.62;;;;;;;1.09;79.56;98771.84;4328757;27;34647;-94
2021/12/28 08:06:32;;;;;;;14.20;6.95;;;;;;;1.31;78.56;98773.09;4307943;27;32933;-96
2021/12/28 08:09:01;;;;;;;11.25;4.97;;;;;;;1.40;78.62;98768.13;4315757;33;32818;-96
2021/12/28 08:11:36;;;;;;;14.07;6.45;;;;;;;1.05;79.98;98759.81;4335470;27;33610;-95
2021/12/28 08:14:04;;;;;;;14.52;7.05;;;;;;;1.45;76.98;98768.22;4325932;33;32730;-94
2021/12/28 08:16:33;;;;;;;18.33;7.47;;;;;;;1.69;76.91;98771.16;4295144;33;32917;-96
2021/12/28 08:19:22;;;;;;;11.38;5.32;;;;;;;1.41;78.50;98763.84;4318743;33;33509;-95
2021/12/28 08:21:50;;;;;;;17.08;6.62;;;;;;;1.46;78.11;98759.66;4328705;33;34248;-95
2021/12/28 08:24:22;;;;;;;11.63;5.47;;;;;;;1.55;77.69;98751.25;4322807;27;34628;-96
2021/12/28 08:26:52;;;;;;;18.00;7.37;;;;;;;1.38;78.87;98756.09;4354347;27;34627;-96
2021/12/28 08:29:25;;;;;;;12.48;5.60;;;;;;;1.83;76.52;98755.94;4401823;27;32015;-96
2021/12/28 08:32:22;;;;;;;16.52;8.30;;;;;;;1.05;79.29;98760.69;4314648;27;32734;-96
2021/12/28 08:35:31;;;;;;;20.17;7.12;;;;;;;1.31;79.83;98753.44;4313221;33;33906;-96
2021/12/28 08:38:33;;;;;;;12.20;5.75;;;;;;;1.35;78.87;98753.50;4340405;33;32514;-96
2021/12/28 08:41:46;;;;;;;15.15;7.80;;;;;;;1.51;77.20;98770.84;4308081;33;32285;-96
2021/12/28 08:48:34;;;;;;;11.48;5.30;;;;;;;1.01;79.07;98776.00;4302271;33;34823;-96
2021/12/28 08:51:45;;;;;;;12.25;6.12;;;;;;;0.98;80.00;98778.50;4291420;27;33250;-95
2021/12/28 08:54:17;;;;;;;16.55;6.22;;;;;;;0.55;81.06;98788.78;4282382;33;32687;-96
2021/12/28 08:57:07;;;;;;;13.07;6.22;;;;;;;1.02;80.66;98770.00;4299353;33;33861;-96
2021/12/28 08:59:56;;;;;;;7.30;4.18;;;;;;;1.28;78.19;98773.91;4284033;33;33403;-96
2021/12/28 09:02:25;;;;;;;16.30;6.57;;;;;;;1.40;78.97;98774.97;4298445;28;33463;-96
2021/12/28 09:05:29;;;;;;;13.68;5.47;;;;;;;0.98;79.32;98778.50;4307861;27;33164;-96
2021/12/28 09:22:38;;;;;;;15.82;6.72;;;;;;;0.83;81.96;98751.75;5115871;27;20052;31
2021/12/28 09:55:48;;;;;;;11.70;7.00;;;;;;;0.96;81.10;98751.97;5058286;27;20096;31
2021/12/28 10:03:02;;;;;;;17.98;8.57;;;;;;;1.23;79.68;98749.88;4486234;27;20141;-96
2021/12/28 10:20:36;;;;;;;20.30;7.62;;;;;;;1.20;80.41;98746.38;4285339;33;32924;-96
2021/12/28 10:23:11;;;;;;;17.05;7.65;;;;;;;0.83;82.50;98745.72;4337789;27;34596;-96
2021/12/28 10:25:53;;;;;;;15.45;7.53;;;;;;;1.29;80.88;98738.88;4347228;27;33203;-96
2021/12/28 10:28:44;;;;;;;18.85;8.63;;;;;;;1.75;79.22;98729.31;4532384;27;33972;-96
2021/12/28 10:31:23;;;;;;;13.10;6.53;;;;;;;0.75;83.09;98737.91;4293102;33;33262;-96
2021/12/28 10:33:59;;;;;;;20.03;7.47;;;;;;;1.03;82.38;98721.34;4299067;33;34773;-96
2021/12/28 10:37:03;;;;;;;14.98;7.80;;;;;;;1.04;80.44;98722.19;4289315;33;34386;-96
2021/12/28 10:51:18;;;;;;;19.12;6.43;;;;;;;1.37;81.12;98718.47;4571971;27;20002;-96
2021/12/28 10:54:48;;;;;;;14.43;6.75;;;;;;;1.31;80.75;98709.84;4350568;27;34545;31
2021/12/28 10:58:50;;;;;;;12.57;6.25;;;;;;;1.21;79.92;98714.78;4303794;27;201676;-96
2021/12/28 11:02:07;;;;;;;14.70;6.43;;;;;;;0.92;81.38;98698.09;4315745;33;34993;-96
2021/12/28 11:06:33;;;;;;;15.73;7.07;;;;;;;1.25;81.08;98696.94;4394961;27;35901;-96
2021/12/28 11:11:19;;;;;;;12.30;5.68;;;;;;;0.90;82.83;98715.13;4348134;27;31873;-96
2021/12/28 11:14:09;;;;;;;16.67;7.97;;;;;;;1.43;80.86;98709.19;4326766;27;33242;-96
2021/12/28 11:17:03;;;;;;;14.20;7.37;;;;;;;1.40;80.61;98706.56;4334408;27;34120;-96
2021/12/28 11:20:04;;;;;;;9.25;5.55;;;;;;;1.72;78.90;98700.19;4341928;33;35704;-96
2021/12/28 11:23:21;;;;;;;9.55;5.12;;;;;;;1.92;77.70;98688.47;4334125;33;34234;-96
2021/12/28 11:26:01;;;;;;;9.77;4.82;;;;;;;1.65;78.69;98692.38;4321573;33;34097;-96
2021/12/28 11:29:18;;;;;;;12.25;5.57;;;;;;;1.99;77.17;98685.13;4397412;27;35194;-96
2021/12/28 11:32:17;;;;;;;12.45;5.25;;;;;;;1.28;80.19;98683.28;4324299;33;33189;-96
2021/12/28 11:34:48;;;;;;;12.48;5.85;;;;;;;1.68;78.92;98674.47;4301311;33;32639;-96
2021/12/28 11:37:23;;;;;;;13.48;7.32;;;;;;;1.56;79.73;98671.72;4298813;33;32437;-96
2021/12/28 11:39:58;;;;;;;9.18;4.80;;;;;;;1.77;77.85;98673.75;4295493;33;34039;-96
2021/12/28 11:42:29;;;;;;;12.37;4.82;;;;;;;1.84;78.37;98672.97;4295215;33;33558;-96
2021/12/28 11:45:21;;;;;;;8.90;4.80;;;;;;;1.44;79.29;98663.84;4287584;33;33146;-96
2021/12/28 11:47:58;;;;;;;7.32;4.65;;;;;;;1.13;81.08;98648.88;4296361;33;34075;-96
2021/12/28 11:50:28;;;;;;;11.38;4.68;;;;;;;0.84;82.59;98663.75;4302314;33;34907;-96
2021/12/28 11:53:06;;;;;;;9.52;4.75;;;;;;;0.93;82.74;98648.53;4305949;33;33361;-96
2021/12/28 11:55:37;;;;;;;9.63;4.80;;;;;;;1.17;81.85;98633.53;4309985;33;31869;-96
2021/12/28 11:58:19;;;;;;;8.52;4.78;;;;;;;1.18;81.88;98628.41;4305186;33;35203;-96
2021/12/28 12:01:10;;;;;;;9.50;5.25;;;;;;;1.78;79.00;98618.12;4292700;33;34392;-96
2021/12/28 12:03:55;;;;;;;12.35;4.78;;;;;;;1.53;80.32;98615.22;4294488;33;34173;-96
2021/12/28 12:07:00;;;;;;;10.85;4.97;;;;;;;1.62;78.65;98614.50;4304075;33;33345;-96
2021/12/28 12:10:37;;;;;;;9.65;4.43;;;;;;;1.59;78.89;98617.00;4673914;27;20050;-96
2021/12/28 12:13:16;;;;;;;8.25;4.90;;;;;;;1.29;79.65;98606.37;4312330;33;33541;-96
2021/12/28 12:15:49;;;;;;;11.70;4.53;;;;;;;1.51;79.25;98597.25;4310238;33;33183;-96
2021/12/28 12:18:20;;;;;;;8.20;4.72;;;;;;;0.93;82.31;98591.28;4322045;33;33071;-96
2021/12/28 12:20:57;;;;;;;12.48;5.57;;;;;;;1.42;80.67;98586.88;4308004;33;34035;-96
2021/12/28 12:23:42;;;;;;;11.05;4.43;;;;;;;1.20;80.50;98589.97;4298185;33;34944;-96
2021/12/28 12:26:10;;;;;;;11.07;4.97;;;;;;;1.37;79.87;98588.50;4307304;33;34533;-96
2021/12/28 12:28:49;;;;;;;10.57;4.60;;;;;;;1.16;81.11;98589.06;4309723;33;32614;-96
2021/12/28 12:31:27;;;;;;;8.25;4.50;;;;;;;1.00;82.14;98579.44;4298599;33;33066;-95
2021/12/28 12:33:58;;;;;;;14.73;4.70;;;;;;;1.45;80.86;98591.19;4321429;33;35075;-95
2021/12/28 12:36:37;;;;;;;9.15;4.78;;;;;;;1.32;81.07;98585.91;4320843;33;32859;-95
2021/12/28 12:39:06;;;;;;;17.25;6.12;;;;;;;1.14;81.73;98580.50;4355996;27;33759;-94
2021/12/28 12:41:51;;;;;;;10.05;5.25;;;;;;;0.89;82.15;98580.12;4298240;33;33233;-96
2021/12/28 12:44:31;;;;;;;13.55;5.45;;;;;;;0.55;84.34;98579.56;4298987;33;34835;-94
2021/12/28 12:47:08;;;;;;;14.10;5.43;;;;;;;1.26;81.76;98575.53;4323162;33;33296;-95
2021/12/28 12:49:37;;;;;;;11.93;5.35;;;;;;;1.20;82.04;98570.34;4310476;33;34336;-96
2021/12/28 12:52:12;;;;;;;10.82;5.72;;;;;;;1.19;82.11;98573.72;4323821;33;34961;-96
2021/12/28 12:55:08;;;;;;;14.73;6.10;;;;;;;1.30;81.20;98572.16;4324503;33;34824;-96
2021/12/28 12:57:36;;;;;;;9.20;5.30;;;;;;;1.46;81.24;98573.22;4304341;33;34477;-96
2021/12/28 13:00:16;;;;;;;11.60;5.00;;;;;;;1.87;79.78;98582.28;4296362;33;33392;-96
2021/12/28 13:02:46;;;;;;;9.52;4.87;;;;;;;2.13;78.73;98580.03;4297177;33;33616;-96
2021/12/28 13:05:22;;;;;;;12.05;6.93;;;;;;;1.86;80.10;98578.03;4293863;33;33822;-95
2021/12/28 13:07:52;;;;;;;11.57;5.85;;;;;;;1.86;80.12;98580.59;4322661;33;34781;-96
2021/12/28 13:10:26;;;;;;;14.10;6.15;;;;;;;2.56;76.99;98577.91;4308451;33;33849;-96
2021/12/28 13:12:58;;;;;;;8.30;4.65;;;;;;;2.26;77.49;98579.31;4317006;27;33450;-96
2021/12/28 13:15:32;;;;;;;14.68;6.20;;;;;;;2.21;77.70;98580.12;4312815;33;35932;-96
2021/12/28 13:18:12;;;;;;;15.68;7.40;;;;;;;1.80;79.41;98575.37;4298301;33;33367;-96
2021/12/28 13:20:41;;;;;;;8.60;5.07;;;;;;;2.12;78.07;98578.31;4297756;33;33469;-96
2021/12/28 13:23:12;;;;;;;7.62;4.22;;;;;;;1.18;81.64;98574.56;4296930;33;34118;-96
2021/12/28 13:25:47;;;;;;;14.77;5.55;;;;;;;1.50;80.17;98574.13;4309146;33;34871;-96
2021/12/28 13:28:20;;;;;;;8.43;4.70;;;;;;;2.16;77.65;98563.81;4308729;33;34183;-96
2021/12/28 13:30:53;;;;;;;8.75;4.85;;;;;;;2.52;76.11;98573.56;4309233;33;33366;-96